createdAt,value
2019-03-03T00:01:02.277Z,83.04
2019-03-03T00:03:28.742Z,83.29
2019-03-03T00:05:55.277Z,83.10
2019-03-03T00:08:21.812Z,83.64
2019-03-03T00:10:48.245Z,83.44
2019-03-03T00:13:14.680Z,82.45
2019-03-03T00:15:41.215Z,85.93
2019-03-03T00:18:07.853Z,85.26
2019-03-03T00:20:34.594Z,84.01
2019-03-03T00:23:01.130Z,83.32
2019-03-03T00:25:27.770Z,83.70
2019-03-03T00:27:54.204Z,83.86
2019-03-03T00:30:20.840Z,84.02
2019-03-03T00:32:47.377Z,83.93
2019-03-03T00:35:14.035Z,84.58
2019-03-03T00:37:51.408Z,84.06
2019-03-03T00:40:25.727Z,84.24
2019-03-03T00:42:54.002Z,83.75
2019-03-03T00:45:31.289Z,84.04
2019-03-03T00:48:08.857Z,84.13
2019-03-03T00:50:37.170Z,84.21
2019-03-03T00:53:08.385Z,84.53
2019-03-03T00:55:36.686Z,83.64
2019-03-03T00:58:05.475Z,83.40
2019-03-03T01:00:42.563Z,83.66
2019-03-03T01:03:26.192Z,83.70
2019-03-03T01:06:04.439Z,83.62
2019-03-03T01:08:50.330Z,83.44
2019-03-03T01:11:28.355Z,83.66
2019-03-03T01:13:57.657Z,83.71
2019-03-03T01:16:41.132Z,84.64
2019-03-03T01:19:09.409Z,84.19
2019-03-03T01:21:40.801Z,84.47
2019-03-03T01:24:15.049Z,84.05
2019-03-03T01:26:41.511Z,84.13
2019-03-03T01:29:07.943Z,84.13
2019-03-03T01:31:34.376Z,83.99
2019-03-03T01:34:00.913Z,83.54
2019-03-03T01:36:27.449Z,83.95
2019-03-03T01:38:53.882Z,84.56
2019-03-03T01:41:20.418Z,83.90
2019-03-03T01:43:46.852Z,85.09
2019-03-03T01:46:13.308Z,83.58
2019-03-03T01:48:39.821Z,83.36
2019-03-03T01:51:06.243Z,84.26
2019-03-03T01:53:32.688Z,83.92
2019-03-03T01:55:59.150Z,83.83
2019-03-03T01:58:25.661Z,83.83
2019-03-03T02:00:52.502Z,84.62
2019-03-03T02:03:18.934Z,84.10
2019-03-03T02:05:45.468Z,83.93
2019-03-03T02:08:12.006Z,83.58
2019-03-03T02:10:38.451Z,83.62
2019-03-03T02:13:05.076Z,83.99
2019-03-03T02:15:31.717Z,83.79
2019-03-03T02:17:58.234Z,83.23
2019-03-03T02:20:24.684Z,83.84
2019-03-03T02:22:51.529Z,84.19
2019-03-03T02:25:18.064Z,84.10
2019-03-03T02:27:44.501Z,83.62
2019-03-03T02:30:17.650Z,83.55
2019-03-03T02:32:44.227Z,83.94
2019-03-03T02:35:10.792Z,84.34
2019-03-03T02:37:37.299Z,84.35
2019-03-03T02:40:07.320Z,84.46
2019-03-03T02:42:33.749Z,84.66
2019-03-03T02:45:00.484Z,84.69
2019-03-03T02:47:26.924Z,83.58
2019-03-03T02:49:53.357Z,83.21
2019-03-03T02:52:19.797Z,84.36
2019-03-03T02:54:46.329Z,84.75
2019-03-03T02:57:12.967Z,84.07
2019-03-03T02:59:39.399Z,84.17
2019-03-03T03:02:07.631Z,83.97
2019-03-03T03:04:34.215Z,83.95
2019-03-03T03:07:08.709Z,83.95
2019-03-03T03:09:37.013Z,83.97
2019-03-03T03:12:23.318Z,83.80
2019-03-03T03:14:54.786Z,83.31
2019-03-03T03:17:32.056Z,84.16
2019-03-03T03:20:00.334Z,84.18
2019-03-03T03:22:31.723Z,84.29
2019-03-03T03:25:06.097Z,83.51
2019-03-03T03:27:37.344Z,82.94
2019-03-03T03:30:08.776Z,83.82
2019-03-03T03:32:37.074Z,83.92
2019-03-03T03:35:07.548Z,83.58
2019-03-03T03:37:35.865Z,83.79
2019-03-03T03:40:17.465Z,84.04
2019-03-03T03:42:45.743Z,83.83
2019-03-03T03:45:20.061Z,84.19
2019-03-03T03:47:51.327Z,84.59
2019-03-03T03:50:25.420Z,83.47
2019-03-03T03:52:53.699Z,83.55
2019-03-03T03:55:22.191Z,84.39
2019-03-03T03:57:56.729Z,83.78
2019-03-03T04:00:25.054Z,83.61
2019-03-03T04:03:02.473Z,83.70
2019-03-03T04:05:33.719Z,83.71
2019-03-03T04:08:01.994Z,83.44
2019-03-03T04:10:33.232Z,83.73
2019-03-03T04:13:10.487Z,83.97
2019-03-03T04:15:41.570Z,84.86
2019-03-03T04:18:09.855Z,85.01
2019-03-03T04:20:44.071Z,84.19
2019-03-03T04:23:18.245Z,83.72
2019-03-03T04:25:49.731Z,86.52
2019-03-03T04:28:21.173Z,86.74
2019-03-03T04:31:06.023Z,84.71
2019-03-03T04:33:52.346Z,83.89
2019-03-03T04:36:20.624Z,85.02
2019-03-03T04:38:51.971Z,82.24
2019-03-03T04:41:23.275Z,83.76
2019-03-03T04:43:57.845Z,87.42
2019-03-03T04:46:44.144Z,85.01
2019-03-03T04:49:28.907Z,85.52
2019-03-03T04:51:57.185Z,84.03
2019-03-03T04:54:28.450Z,83.73
2019-03-03T04:56:59.677Z,83.96
2019-03-03T04:59:34.103Z,83.98
2019-03-03T05:02:11.518Z,83.67
2019-03-03T05:04:42.736Z,83.28
2019-03-03T05:07:20.029Z,83.80
2019-03-03T05:10:05.095Z,83.71
2019-03-03T05:12:42.486Z,83.84
2019-03-03T05:15:24.075Z,83.38
2019-03-03T05:17:58.496Z,83.80
2019-03-03T05:20:25.031Z,83.34
2019-03-03T05:22:51.668Z,83.20
2019-03-03T05:25:18.246Z,83.64
2019-03-03T05:27:44.739Z,83.36
2019-03-03T05:30:12.811Z,83.77
2019-03-03T05:32:39.349Z,84.23
2019-03-03T05:35:07.107Z,83.74
2019-03-03T05:37:33.545Z,82.94
2019-03-03T05:39:59.978Z,83.29
2019-03-03T05:42:26.412Z,83.71
2019-03-03T05:44:52.948Z,82.76
2019-03-03T05:47:19.381Z,82.48
2019-03-03T05:49:45.874Z,82.92
2019-03-03T05:52:12.453Z,83.66
2019-03-03T05:54:38.989Z,84.50
2019-03-03T05:57:05.439Z,83.87
2019-03-03T05:59:31.959Z,83.60
2019-03-03T06:01:58.393Z,83.17
2019-03-03T06:04:24.929Z,82.63
2019-03-03T06:06:51.362Z,83.86
2019-03-03T06:09:17.797Z,83.14
2019-03-03T06:11:44.228Z,83.61
2019-03-03T06:14:10.662Z,84.44
2019-03-03T06:16:37.203Z,83.91
2019-03-03T06:19:03.631Z,83.66
2019-03-03T06:21:30.270Z,83.38
2019-03-03T06:23:56.809Z,82.98
2019-03-03T06:26:23.549Z,83.92
2019-03-03T06:28:50.084Z,83.70
2019-03-03T06:31:16.520Z,83.97
2019-03-03T06:33:42.953Z,84.52
2019-03-03T06:36:09.485Z,84.52
2019-03-03T06:38:36.022Z,86.56
2019-03-03T06:41:02.660Z,83.75
2019-03-03T06:43:29.196Z,83.92
2019-03-03T06:45:55.736Z,83.69
2019-03-03T06:48:22.166Z,83.22
2019-03-03T06:50:48.802Z,84.58
2019-03-03T06:53:15.543Z,86.59
2019-03-03T06:55:42.081Z,85.79
2019-03-03T06:58:08.513Z,84.28
2019-03-03T07:00:34.947Z,84.03
2019-03-03T07:03:01.487Z,85.87
2019-03-03T07:05:28.026Z,85.91
2019-03-03T07:07:54.456Z,85.13
2019-03-03T07:10:20.889Z,85.26
2019-03-03T07:12:47.322Z,85.19
2019-03-03T07:15:16.929Z,84.28
2019-03-03T07:17:43.463Z,82.56
2019-03-03T07:20:11.390Z,82.85
2019-03-03T07:22:37.868Z,82.54
2019-03-03T07:25:07.474Z,81.71
2019-03-03T07:27:34.329Z,83.52
2019-03-03T07:30:00.854Z,83.08
2019-03-03T07:32:27.290Z,82.58
2019-03-03T07:34:53.823Z,82.48
2019-03-03T07:37:20.483Z,82.15
2019-03-03T07:39:46.896Z,82.23
2019-03-03T07:42:13.351Z,82.20
2019-03-03T07:44:40.071Z,81.52
2019-03-03T07:47:06.711Z,81.25
2019-03-03T07:49:33.141Z,79.65
2019-03-03T07:52:01.631Z,80.18
2019-03-03T07:54:28.158Z,79.93
2019-03-03T07:56:54.799Z,78.69
2019-03-03T07:59:21.230Z,78.29
2019-03-03T08:01:47.971Z,79.02
2019-03-03T08:04:14.713Z,79.15
2019-03-03T08:06:41.352Z,77.90
2019-03-03T08:09:07.886Z,76.88
2019-03-03T08:11:34.422Z,75.69
2019-03-03T08:14:00.959Z,78.23
2019-03-03T08:16:27.499Z,76.88
2019-03-03T08:18:53.928Z,76.75
2019-03-03T08:21:20.362Z,77.86
2019-03-03T08:23:46.795Z,79.86
2019-03-03T08:26:13.329Z,79.99
2019-03-03T08:28:40.174Z,79.40
2019-03-03T08:31:06.607Z,77.67
2019-03-03T08:33:33.041Z,76.74
2019-03-03T08:35:59.584Z,77.94
2019-03-03T08:38:26.010Z,77.93
2019-03-03T08:40:52.448Z,75.50
2019-03-03T08:43:26.471Z,74.46
2019-03-03T08:45:54.733Z,75.19
2019-03-03T08:48:29.210Z,75.25
2019-03-03T08:51:15.734Z,75.20
2019-03-03T08:53:56.123Z,74.44
2019-03-03T08:56:30.131Z,74.72
2019-03-03T08:59:16.843Z,72.59
2019-03-03T09:01:45.116Z,72.79
2019-03-03T09:04:25.580Z,72.43
2019-03-03T09:07:10.631Z,71.80
2019-03-03T09:09:40.770Z,71.70
2019-03-03T09:12:23.895Z,70.95
2019-03-03T09:14:52.172Z,71.29
2019-03-03T09:17:26.737Z,72.10
2019-03-03T09:20:04.088Z,71.36
2019-03-03T09:22:41.482Z,72.00
2019-03-03T09:25:26.751Z,72.91
2019-03-03T09:28:13.317Z,73.69
2019-03-03T09:30:53.923Z,72.86
2019-03-03T09:33:40.225Z,72.18
2019-03-03T09:36:08.603Z,71.96
2019-03-03T09:38:39.617Z,71.81
2019-03-03T09:41:10.584Z,72.13
2019-03-03T09:43:48.176Z,71.49
2019-03-03T09:46:16.454Z,70.69
2019-03-03T09:48:53.845Z,71.28
2019-03-03T09:51:22.325Z,71.25
2019-03-03T09:54:05.976Z,70.99
2019-03-03T09:56:37.007Z,69.79
2019-03-03T09:59:14.088Z,69.69
2019-03-03T10:01:51.477Z,69.22
2019-03-03T10:04:36.235Z,68.60
2019-03-03T10:07:17.831Z,68.24
2019-03-03T10:09:55.119Z,67.52
2019-03-03T10:12:23.397Z,68.24
2019-03-03T10:14:51.676Z,66.67
2019-03-03T10:17:32.239Z,66.94
2019-03-03T10:20:00.520Z,68.57
2019-03-03T10:22:28.800Z,67.17
2019-03-03T10:25:10.039Z,66.93
2019-03-03T10:27:39.998Z,65.92
2019-03-03T10:30:12.156Z,66.88
2019-03-03T10:32:43.525Z,65.17
2019-03-03T10:35:15.774Z,66.19
2019-03-03T10:37:56.544Z,65.47
2019-03-03T10:40:24.822Z,65.59
2019-03-03T10:43:09.499Z,65.59
2019-03-03T10:45:40.933Z,64.75
2019-03-03T10:48:11.922Z,64.69
2019-03-03T10:50:57.045Z,64.81
2019-03-03T10:53:25.429Z,64.58
2019-03-03T10:56:10.545Z,66.30
2019-03-03T10:58:47.885Z,65.55
2019-03-03T11:01:25.176Z,65.01
2019-03-03T11:03:53.654Z,66.45
2019-03-03T11:06:30.944Z,65.29
2019-03-03T11:09:11.431Z,66.26
2019-03-03T11:11:49.102Z,69.41
2019-03-03T11:14:17.384Z,66.07
2019-03-03T11:16:54.872Z,64.45
2019-03-03T11:19:29.294Z,64.45
2019-03-03T11:22:15.900Z,63.69
2019-03-03T11:24:56.261Z,63.43
2019-03-03T11:27:36.722Z,65.45
2019-03-03T11:30:16.884Z,63.65
2019-03-03T11:32:45.361Z,62.77
2019-03-03T11:35:22.650Z,63.35
2019-03-03T11:38:07.704Z,61.58
2019-03-03T11:40:52.587Z,61.87
2019-03-03T11:43:23.620Z,61.87
2019-03-03T11:46:00.936Z,61.03
2019-03-03T11:48:33.803Z,62.64
2019-03-03T11:51:02.080Z,61.63
2019-03-03T11:53:36.514Z,62.40
2019-03-03T11:56:05.019Z,66.92
2019-03-03T11:58:42.474Z,60.93
2019-03-03T12:01:10.954Z,60.04
2019-03-03T12:03:52.544Z,59.70
2019-03-03T12:06:38.442Z,60.94
2019-03-03T12:09:14.084Z,62.95
2019-03-03T12:11:48.121Z,65.69
2019-03-03T12:14:33.265Z,62.41
2019-03-03T12:17:06.902Z,61.47
2019-03-03T12:19:35.144Z,60.09
2019-03-03T12:22:03.431Z,61.88
2019-03-03T12:24:47.160Z,62.58
2019-03-03T12:27:15.435Z,61.45
2019-03-03T12:29:55.694Z,60.66
2019-03-03T12:32:26.850Z,60.08
2019-03-03T12:34:57.882Z,60.25
2019-03-03T12:37:31.940Z,60.51
2019-03-03T12:40:16.610Z,61.45
2019-03-03T12:42:44.931Z,61.53
2019-03-03T12:45:13.316Z,63.00
2019-03-03T12:47:47.529Z,62.53
2019-03-03T12:50:28.495Z,63.03
2019-03-03T12:53:03.229Z,63.33
2019-03-03T12:55:31.607Z,61.55
2019-03-03T12:58:02.855Z,62.13
2019-03-03T13:00:37.151Z,60.69
2019-03-03T13:03:11.662Z,60.20
2019-03-03T13:05:48.880Z,60.19
2019-03-03T13:08:26.217Z,58.32
2019-03-03T13:11:00.739Z,57.57
2019-03-03T13:13:41.026Z,59.53
2019-03-03T13:16:15.166Z,59.29
2019-03-03T13:18:43.442Z,58.27
2019-03-03T13:21:27.080Z,58.22
2019-03-03T13:23:55.356Z,59.49
2019-03-03T13:26:23.633Z,57.90
2019-03-03T13:28:55.104Z,56.51
2019-03-03T13:31:42.103Z,58.41
2019-03-03T13:34:27.293Z,53.64
2019-03-03T13:36:55.551Z,54.24
2019-03-03T13:39:29.831Z,52.52
2019-03-03T13:41:58.150Z,53.68
2019-03-03T13:44:26.501Z,51.87
2019-03-03T13:46:52.964Z,51.81
2019-03-03T13:49:19.394Z,52.45
2019-03-03T13:51:45.838Z,51.57
2019-03-03T13:54:12.672Z,51.44
2019-03-03T13:56:39.311Z,52.80
2019-03-03T13:59:05.958Z,54.80
2019-03-03T14:01:32.692Z,51.86
2019-03-03T14:03:59.119Z,51.98
2019-03-03T14:06:25.654Z,53.21
2019-03-03T14:08:52.292Z,52.89
2019-03-03T14:11:28.967Z,52.66
2019-03-03T14:13:55.504Z,52.52
2019-03-03T14:16:22.041Z,53.40
2019-03-03T14:18:48.477Z,49.89
2019-03-03T14:21:14.913Z,52.63
2019-03-03T14:23:41.369Z,50.74
2019-03-03T14:26:07.990Z,51.26
2019-03-03T14:28:34.525Z,51.55
2019-03-03T14:31:01.049Z,50.00
2019-03-03T14:33:27.609Z,49.62
2019-03-03T14:35:54.120Z,50.98
2019-03-03T14:38:20.556Z,51.62
2019-03-03T14:40:47.194Z,50.89
2019-03-03T14:43:13.629Z,52.53
2019-03-03T14:45:40.163Z,50.59
2019-03-03T14:48:06.815Z,48.89
2019-03-03T14:50:33.667Z,48.97
2019-03-03T14:53:00.282Z,47.30
2019-03-03T14:55:26.921Z,47.92
2019-03-03T14:57:53.663Z,48.89
2019-03-03T15:00:27.080Z,49.25
2019-03-03T15:02:54.104Z,47.69
2019-03-03T15:05:21.155Z,48.31
2019-03-03T15:07:47.588Z,48.19
2019-03-03T15:10:14.125Z,48.34
2019-03-03T15:12:40.659Z,49.22
2019-03-03T15:15:10.474Z,49.21
2019-03-03T15:17:37.315Z,49.22
2019-03-03T15:20:05.739Z,48.13
2019-03-03T15:22:32.332Z,47.86
2019-03-03T15:24:58.868Z,47.65
2019-03-03T15:27:25.301Z,46.44
2019-03-03T15:29:51.838Z,45.90
2019-03-03T15:32:18.257Z,46.32
2019-03-03T15:34:45.114Z,46.25
2019-03-03T15:37:12.982Z,47.62
2019-03-03T15:39:39.807Z,49.09
2019-03-03T15:42:06.259Z,50.01
2019-03-03T15:44:33.517Z,49.87
2019-03-03T15:47:00.046Z,49.62
2019-03-03T15:49:26.583Z,51.00
2019-03-03T15:51:53.325Z,50.69
2019-03-03T15:54:19.760Z,52.01
2019-03-03T15:56:46.297Z,53.51
2019-03-03T15:59:12.730Z,53.94
2019-03-03T16:01:39.273Z,54.20
2019-03-03T16:04:05.698Z,54.86
2019-03-03T16:06:32.231Z,54.76
2019-03-03T16:08:58.665Z,53.93
2019-03-03T16:11:25.105Z,54.86
2019-03-03T16:13:51.534Z,54.25
2019-03-03T16:16:18.069Z,54.41
2019-03-03T16:18:45.134Z,54.54
2019-03-03T16:21:11.655Z,53.98
2019-03-03T16:23:38.090Z,53.68
2019-03-03T16:26:04.625Z,53.66
2019-03-03T16:28:31.055Z,53.60
2019-03-03T16:30:57.490Z,54.13
2019-03-03T16:33:24.692Z,54.14
2019-03-03T16:35:51.586Z,55.29
2019-03-03T16:38:18.020Z,53.87
2019-03-03T16:40:46.097Z,52.75
2019-03-03T16:43:12.832Z,50.99
2019-03-03T16:45:39.577Z,50.01
2019-03-03T16:48:06.418Z,50.76
2019-03-03T16:50:32.953Z,50.32
2019-03-03T16:52:59.694Z,50.36
2019-03-03T16:55:26.230Z,50.74
2019-03-03T16:57:52.775Z,51.34
2019-03-03T17:00:25.959Z,50.71
2019-03-03T17:02:52.389Z,51.73
2019-03-03T17:05:21.590Z,52.41
2019-03-03T17:07:48.023Z,52.19
2019-03-03T17:10:14.776Z,53.04
2019-03-03T17:12:41.298Z,53.10
2019-03-03T17:15:13.976Z,53.31
2019-03-03T17:17:40.727Z,54.27
2019-03-03T17:20:08.944Z,52.97
2019-03-03T17:22:35.841Z,52.88
2019-03-03T17:25:04.628Z,52.69
2019-03-03T17:27:31.167Z,52.92
2019-03-03T17:29:57.706Z,54.56
2019-03-03T17:32:24.439Z,53.85
2019-03-03T17:34:51.489Z,54.36
2019-03-03T17:37:18.230Z,54.90
2019-03-03T17:39:44.766Z,55.12
2019-03-03T17:42:11.301Z,55.23
2019-03-03T17:44:37.838Z,55.60
2019-03-03T17:47:04.374Z,55.26
2019-03-03T17:49:30.910Z,55.41
2019-03-03T17:51:57.447Z,56.78
2019-03-03T17:54:23.985Z,57.64
2019-03-03T17:56:50.521Z,57.32
2019-03-03T17:59:17.057Z,58.10
2019-03-03T18:01:43.496Z,58.86
2019-03-03T18:04:10.035Z,59.28
2019-03-03T18:06:38.945Z,59.75
2019-03-03T18:09:06.729Z,58.47
2019-03-03T18:11:33.320Z,58.28
2019-03-03T18:13:59.756Z,60.51
2019-03-03T18:16:26.389Z,60.07
2019-03-03T18:18:53.442Z,58.62
2019-03-03T18:21:20.999Z,58.33
2019-03-03T18:23:47.535Z,59.33
2019-03-03T18:26:13.986Z,58.42
2019-03-03T18:28:40.810Z,57.44
2019-03-03T18:31:07.347Z,58.34
2019-03-03T18:33:33.882Z,58.26
2019-03-03T18:36:00.522Z,57.64
2019-03-03T18:38:27.056Z,56.96
2019-03-03T18:40:53.593Z,56.21
2019-03-03T18:43:20.127Z,57.09
2019-03-03T18:45:46.664Z,54.67
2019-03-03T18:48:13.303Z,55.99
2019-03-03T18:50:39.840Z,56.92
2019-03-03T18:53:06.477Z,56.67
2019-03-03T18:55:32.932Z,57.04
2019-03-03T18:57:59.446Z,56.89
2019-03-03T19:00:27.774Z,57.76
2019-03-03T19:02:54.266Z,57.34
2019-03-03T19:05:21.000Z,56.72
2019-03-03T19:07:48.051Z,56.70
2019-03-03T19:10:19.651Z,57.72
2019-03-03T19:12:46.137Z,57.89
2019-03-03T19:15:14.927Z,57.92
2019-03-03T19:17:41.568Z,58.64
2019-03-03T19:20:10.972Z,56.81
2019-03-03T19:22:37.717Z,57.97
2019-03-03T19:25:08.517Z,57.97
2019-03-03T19:27:34.981Z,58.13
2019-03-03T19:30:01.823Z,58.13
2019-03-03T19:32:28.359Z,56.61
2019-03-03T19:34:54.999Z,56.79
2019-03-03T19:37:21.740Z,56.79
2019-03-03T19:39:48.172Z,56.87
2019-03-03T19:42:14.706Z,55.72
2019-03-03T19:44:41.243Z,54.56
2019-03-03T19:47:08.086Z,54.56
2019-03-03T19:49:34.523Z,55.06
2019-03-03T19:52:01.055Z,54.18
2019-03-03T19:54:27.796Z,54.18
2019-03-03T19:56:54.332Z,53.41
2019-03-03T19:59:21.178Z,54.78
2019-03-03T20:01:47.721Z,55.74
2019-03-03T20:04:14.248Z,55.51
2019-03-03T20:06:40.786Z,55.02
2019-03-03T20:09:07.936Z,56.76
2019-03-03T20:11:34.470Z,56.76
2019-03-03T20:14:01.213Z,57.13
2019-03-03T20:16:27.747Z,57.31
2019-03-03T20:18:54.283Z,57.02
2019-03-03T20:21:22.150Z,55.47
2019-03-03T20:23:48.586Z,55.90
2019-03-03T20:26:15.225Z,56.36
2019-03-03T20:28:41.757Z,54.87
2019-03-03T20:31:08.498Z,55.78
2019-03-03T20:33:35.036Z,55.05
2019-03-03T20:36:01.569Z,54.41
2019-03-03T20:38:29.539Z,54.88
2019-03-03T20:40:55.973Z,55.44
2019-03-03T20:43:24.253Z,53.86
2019-03-03T20:45:50.787Z,53.47
2019-03-03T20:48:17.339Z,53.93
2019-03-03T20:50:43.857Z,54.02
2019-03-03T20:53:10.501Z,55.21
2019-03-03T20:55:37.055Z,55.44
2019-03-03T20:58:03.773Z,55.45
2019-03-03T21:00:32.591Z,55.45
2019-03-03T21:02:59.646Z,55.98
2019-03-03T21:05:26.554Z,56.04
2019-03-03T21:07:53.480Z,55.45
2019-03-03T21:10:23.571Z,55.25
2019-03-03T21:12:50.122Z,55.49
2019-03-03T21:15:16.710Z,55.94
2019-03-03T21:17:43.235Z,56.50
2019-03-03T21:20:13.347Z,56.59
2019-03-03T21:22:39.888Z,56.27
2019-03-03T21:25:08.982Z,55.89
2019-03-03T21:27:37.257Z,56.27
2019-03-03T21:30:07.347Z,56.29
2019-03-03T21:32:33.811Z,56.63
2019-03-03T21:35:00.347Z,56.41
2019-03-03T21:37:27.087Z,56.37
2019-03-03T21:39:53.829Z,56.75
2019-03-03T21:42:20.263Z,57.09
2019-03-03T21:44:46.905Z,56.49
2019-03-03T21:47:13.333Z,56.51
2019-03-03T21:49:39.769Z,56.04
2019-03-03T21:52:06.306Z,56.37
2019-03-03T21:54:32.839Z,57.15
2019-03-03T21:56:59.376Z,57.08
2019-03-03T21:59:25.810Z,56.27
2019-03-03T22:01:52.346Z,56.30
2019-03-03T22:04:19.906Z,56.74
2019-03-03T22:06:46.441Z,56.20
2019-03-03T22:09:13.389Z,56.75
2019-03-03T22:11:39.925Z,56.06
2019-03-03T22:14:06.358Z,55.03
2019-03-03T22:16:32.896Z,54.29
2019-03-03T22:18:59.329Z,54.32
2019-03-03T22:21:25.749Z,55.33
2019-03-03T22:23:52.470Z,53.85
2019-03-03T22:26:18.958Z,54.24
2019-03-03T22:28:45.391Z,56.20
2019-03-03T22:31:11.819Z,56.20
2019-03-03T22:33:38.314Z,55.83
2019-03-03T22:36:04.878Z,56.01
2019-03-03T22:38:31.410Z,55.91
2019-03-03T22:40:57.946Z,55.65
2019-03-03T22:43:24.379Z,55.72
2019-03-03T22:45:50.915Z,55.87
2019-03-03T22:48:17.347Z,56.00
2019-03-03T22:50:43.780Z,55.54
2019-03-03T22:53:10.420Z,55.71
2019-03-03T22:55:37.468Z,55.81
2019-03-03T22:58:03.904Z,56.38
2019-03-03T23:00:53.178Z,56.13
2019-03-03T23:03:35.168Z,55.35
2019-03-03T23:06:14.192Z,56.10
2019-03-03T23:08:59.679Z,56.11
2019-03-03T23:11:41.882Z,54.31
2019-03-03T23:14:14.665Z,53.98
2019-03-03T23:16:56.767Z,52.16
2019-03-03T23:19:42.038Z,52.90
2019-03-03T23:22:27.415Z,52.99
2019-03-03T23:25:27.847Z,53.10
2019-03-03T23:27:54.279Z,54.41
2019-03-03T23:30:20.714Z,53.78
2019-03-03T23:32:47.147Z,53.60
2019-03-03T23:35:13.890Z,52.23
2019-03-03T23:37:40.320Z,51.45
2019-03-03T23:40:06.961Z,52.18
2019-03-03T23:42:33.597Z,52.03
2019-03-03T23:45:00.295Z,51.96
2019-03-03T23:47:26.771Z,52.01
2019-03-03T23:49:53.205Z,52.55
2019-03-03T23:52:19.639Z,52.52
2019-03-03T23:54:46.176Z,51.23
2019-03-03T23:57:12.608Z,51.01
2019-03-03T23:59:39.042Z,51.90
